Time,TemperatureF,DewpointF,PressureIn,WindDirection,WindDirectionDegrees,WindSpeedMPH,WindSpeedGustMPH,Humidity,HourlyPrecipIn,Conditions,Clouds,dailyrainin,SoftwareType,DateUTC
2013-06-13 00:02:00,57.0,21.0,30.35,NNW,347,8.0,12.0,24,0.00,,,0.00,,2013-06-13 06:02:00,
2013-06-13 00:11:00,57.0,22.0,30.35,NNW,336,5.0,6.0,25,0.00,,,0.00,,2013-06-13 06:11:00,
2013-06-13 00:22:00,57.0,22.0,30.35,NNW,345,6.0,9.0,25,0.00,,,0.00,,2013-06-13 06:22:00,
2013-06-13 00:33:00,56.0,21.0,30.35,NNW,335,6.0,7.0,25,0.00,,,0.00,,2013-06-13 06:33:00,
2013-06-13 00:44:00,56.0,22.0,30.35,North,350,5.0,9.0,26,0.00,,,0.00,,2013-06-13 06:44:00,
2013-06-13 00:52:00,56.0,22.0,30.35,NNW,339,5.0,8.0,26,0.00,,,0.00,,2013-06-13 06:52:00,
2013-06-13 01:01:00,57.0,22.0,30.35,North,353,6.0,8.0,25,0.00,,,0.00,,2013-06-13 07:01:00,
2013-06-13 01:11:00,57.0,22.0,30.35,NNW,348,7.0,8.0,25,0.00,,,0.00,,2013-06-13 07:11:00,
2013-06-13 01:22:00,57.0,22.0,30.35,North,356,6.0,8.0,25,0.00,,,0.00,,2013-06-13 07:22:00,
2013-06-13 01:33:00,56.0,21.0,30.35,North,1,5.0,9.0,25,0.00,,,0.00,,2013-06-13 07:33:00,
2013-06-13 01:42:00,57.0,22.0,30.35,North,352,6.0,8.0,25,0.00,,,0.00,,2013-06-13 07:42:00,
2013-06-13 01:52:00,57.0,22.0,30.35,North,356,7.0,10.0,26,0.00,,,0.00,,2013-06-13 07:52:00,
2013-06-13 02:01:00,56.0,22.0,30.34,North,353,6.0,8.0,26,0.00,,,0.00,,2013-06-13 08:01:00,
2013-06-13 02:11:00,56.0,22.0,30.34,North,356,6.0,8.0,26,0.00,,,0.00,,2013-06-13 08:11:00,
2013-06-13 02:22:00,56.0,22.0,30.34,North,350,6.0,8.0,26,0.00,,,0.00,,2013-06-13 08:22:00,
2013-06-13 02:32:00,56.0,22.0,30.34,North,354,6.0,7.0,26,0.00,,,0.00,,2013-06-13 08:32:00,
2013-06-13 02:42:00,56.0,22.0,30.34,North,349,6.0,9.0,26,0.00,,,0.00,,2013-06-13 08:42:00,
2013-06-13 02:52:00,56.0,22.0,30.34,North,5,5.0,7.0,26,0.00,,,0.00,,2013-06-13 08:52:00,
2013-06-13 03:02:00,57.0,22.0,30.35,North,356,7.0,9.0,26,0.00,,,0.00,,2013-06-13 09:02:00,
2013-06-13 03:11:00,56.0,23.0,30.34,North,353,7.0,9.0,27,0.00,,,0.00,,2013-06-13 09:11:00,
2013-06-13 03:22:00,56.0,23.0,30.34,North,358,6.0,7.0,27,0.00,,,0.00,,2013-06-13 09:22:00,
2013-06-13 03:32:00,55.0,22.0,30.33,North,357,6.0,9.0,27,0.00,,,0.00,,2013-06-13 09:32:00,
2013-06-13 03:42:00,55.0,22.0,30.33,North,0,6.0,8.0,27,0.00,,,0.00,,2013-06-13 09:42:00,
2013-06-13 03:52:00,55.0,22.0,30.33,North,4,6.0,7.0,27,0.00,,,0.00,,2013-06-13 09:52:00,
2013-06-13 04:01:00,55.0,22.0,30.33,North,356,7.0,9.0,27,0.00,,,0.00,,2013-06-13 10:01:00,
2013-06-13 04:11:00,55.0,22.0,30.33,North,354,6.0,9.0,27,0.00,,,0.00,,2013-06-13 10:11:00,
2013-06-13 04:22:00,54.0,21.0,30.32,North,356,7.0,12.0,27,0.00,,,0.00,,2013-06-13 10:22:00,
2013-06-13 04:33:00,55.0,22.0,30.32,NNW,341,7.0,12.0,27,0.00,,,0.00,,2013-06-13 10:33:00,
2013-06-13 04:42:00,54.0,21.0,30.33,North,0,6.0,7.0,27,0.00,,,0.00,,2013-06-13 10:42:00,
2013-06-13 04:53:00,54.0,21.0,30.33,North,356,5.0,7.0,27,0.00,,,0.00,,2013-06-13 10:53:00,
2013-06-13 05:02:00,54.0,21.0,30.33,NNW,345,6.0,9.0,27,0.00,,,0.00,,2013-06-13 11:02:00,
2013-06-13 05:11:00,54.0,21.0,30.33,NNW,341,5.0,6.0,27,0.00,,,0.00,,2013-06-13 11:11:00,
2013-06-13 05:23:00,54.0,21.0,30.33,North,351,6.0,10.0,27,0.00,,,0.00,,2013-06-13 11:23:00,
2013-06-13 05:32:00,54.0,22.0,30.33,North,352,8.0,10.0,28,0.00,,,0.00,,2013-06-13 11:32:00,
2013-06-13 05:42:00,54.0,21.0,30.33,North,352,7.0,9.0,27,0.00,,,0.00,,2013-06-13 11:42:00,
2013-06-13 05:52:00,54.0,22.0,30.33,North,352,7.0,10.0,28,0.00,,,0.00,,2013-06-13 11:52:00,
2013-06-13 06:01:00,54.0,22.0,30.33,North,352,6.0,9.0,28,0.00,,,0.00,,2013-06-13 12:01:00,
2013-06-13 06:11:00,53.0,21.0,30.33,North,357,8.0,10.0,28,0.00,,,0.00,,2013-06-13 12:11:00,
2013-06-13 06:22:00,53.0,21.0,30.33,North,359,6.0,8.0,28,0.00,,,0.00,,2013-06-13 12:22:00,
2013-06-13 06:34:00,53.0,21.0,30.34,North,357,7.0,10.0,28,0.00,,,0.00,,2013-06-13 12:34:00,
2013-06-13 06:42:00,54.0,21.0,30.34,North,354,7.0,9.0,27,0.00,,,0.00,,2013-06-13 12:42:00,
2013-06-13 06:52:00,56.0,23.0,30.34,North,0,6.0,8.0,27,0.00,,,0.00,,2013-06-13 12:52:00,
2013-06-13 07:32:00,59.0,24.0,30.34,North,4,7.0,12.0,26,0.00,,,0.00,,2013-06-13 13:32:00,
2013-06-13 07:43:00,59.0,24.0,30.34,North,356,6.0,9.0,26,0.00,,,0.00,,2013-06-13 13:43:00,
2013-06-13 08:33:00,67.0,28.0,30.35,NNE,21,0.0,0.0,23,0.00,,,0.00,,2013-06-13 14:33:00,
2013-06-13 08:43:00,69.0,33.0,30.35,NNE,21,0.0,0.0,26,0.00,,,0.00,,2013-06-13 14:43:00,
2013-06-13 13:33:00,84.0,30.0,30.32,SSE,149,14.0,18.0,14,0.00,,,0.00,,2013-06-13 19:33:00,
2013-06-13 13:43:00,83.0,31.0,30.31,SSE,152,7.0,7.0,15,0.00,,,0.00,,2013-06-13 19:43:00,
2013-06-13 13:53:00,82.0,30.0,30.31,SSE,155,17.0,26.0,15,0.00,,,0.00,,2013-06-13 19:53:00,
2013-06-13 14:01:00,82.0,31.0,30.31,SSW,201,5.0,9.0,16,0.00,,,0.00,,2013-06-13 20:01:00,
2013-06-13 14:43:00,83.0,31.0,30.29,SE,141,7.0,10.0,15,0.00,,,0.00,,2013-06-13 20:43:00,
2013-06-13 14:53:00,81.0,29.0,30.30,SSE,153,6.0,12.0,15,0.00,,,0.00,,2013-06-13 20:53:00,
2013-06-13 15:52:00,82.0,30.0,30.28,South,179,6.0,7.0,15,0.00,,,0.00,,2013-06-13 21:52:00,
2013-06-13 16:02:00,80.0,28.0,30.28,SSE,161,12.0,16.0,15,0.00,,,0.00,,2013-06-13 22:02:00,
2013-06-13 16:11:00,78.0,28.0,30.28,SSW,200,8.0,13.0,16,0.00,,,0.00,,2013-06-13 22:11:00,
2013-06-13 16:22:00,77.0,29.0,30.29,SSW,210,12.0,15.0,17,0.00,,,0.00,,2013-06-13 22:22:00,
2013-06-13 16:32:00,77.0,29.0,30.29,South,189,9.0,16.0,17,0.00,,,0.00,,2013-06-13 22:32:00,
2013-06-13 16:42:00,81.0,31.0,30.29,SSE,154,8.0,14.0,16,0.00,,,0.00,,2013-06-13 22:42:00,
2013-06-13 17:32:00,79.0,32.0,30.29,WNW,286,9.0,20.0,18,0.00,,,0.00,,2013-06-13 23:32:00,
2013-06-13 17:43:00,76.0,31.0,30.28,NW,319,3.0,5.0,19,0.00,,,0.00,,2013-06-13 23:43:00,
2013-06-13 17:52:00,75.0,30.0,30.28,SSW,197,2.0,3.0,19,0.00,,,0.00,,2013-06-13 23:52:00,
2013-06-13 18:01:00,75.0,30.0,30.27,SW,234,0.0,3.0,19,0.00,,,0.00,,2013-06-14 00:01:00,
2013-06-13 18:11:00,77.0,32.0,30.27,SW,234,0.0,0.0,19,0.00,,,0.00,,2013-06-14 00:11:00,
2013-06-13 18:22:00,76.0,31.0,30.27,SW,233,2.0,3.0,19,0.00,,,0.00,,2013-06-14 00:22:00,
2013-06-13 18:34:00,76.0,31.0,30.27,SSE,160,1.0,3.0,19,0.00,,,0.00,,2013-06-14 00:34:00,
2013-06-13 18:43:00,76.0,31.0,30.26,SSE,160,1.0,2.0,19,0.00,,,0.00,,2013-06-14 00:43:00,
2013-06-13 18:53:00,75.0,34.0,30.26,SSE,160,1.0,2.0,22,0.00,,,0.00,,2013-06-14 00:53:00,
2013-06-13 19:01:00,75.0,32.0,30.26,SSE,160,0.0,0.0,21,0.00,,,0.00,,2013-06-14 01:01:00,
2013-06-13 19:11:00,73.0,37.0,30.26,SSE,160,1.0,2.0,27,0.00,,,0.00,,2013-06-14 01:11:00,
2013-06-13 19:22:00,71.0,35.0,30.26,South,177,1.0,2.0,27,0.00,,,0.00,,2013-06-14 01:22:00,
2013-06-13 19:32:00,69.0,33.0,30.26,WNW,284,2.0,3.0,26,0.00,,,0.00,,2013-06-14 01:32:00,
2013-06-13 19:43:00,68.0,31.0,30.26,WNW,284,0.0,0.0,25,0.00,,,0.00,,2013-06-14 01:43:00,
2013-06-13 19:52:00,68.0,31.0,30.27,West,269,0.0,0.0,25,0.00,,,0.00,,2013-06-14 01:52:00,
2013-06-13 20:02:00,67.0,31.0,30.26,West,269,2.0,3.0,26,0.00,,,0.00,,2013-06-14 02:02:00,
2013-06-13 20:11:00,66.0,30.0,30.26,West,269,0.0,1.0,26,0.00,,,0.00,,2013-06-14 02:11:00,
2013-06-13 20:22:00,65.0,30.0,30.26,West,269,0.0,1.0,27,0.00,,,0.00,,2013-06-14 02:22:00,
2013-06-13 20:32:00,65.0,30.0,30.27,West,269,1.0,3.0,27,0.00,,,0.00,,2013-06-14 02:32:00,
2013-06-13 20:43:00,64.0,29.0,30.27,WNW,285,5.0,6.0,27,0.00,,,0.00,,2013-06-14 02:43:00,
2013-06-13 20:52:00,64.0,29.0,30.29,SSW,195,9.0,10.0,27,0.00,,,0.00,,2013-06-14 02:52:00,
2013-06-13 21:02:00,65.0,29.0,30.28,West,273,7.0,14.0,26,0.00,,,0.00,,2013-06-14 03:02:00,
2013-06-13 21:11:00,65.0,29.0,30.27,West,276,6.0,8.0,26,0.00,,,0.00,,2013-06-14 03:11:00,
2013-06-13 21:22:00,65.0,29.0,30.28,West,279,5.0,10.0,26,0.00,,,0.00,,2013-06-14 03:22:00,
2013-06-13 21:34:00,65.0,30.0,30.29,South,181,6.0,9.0,27,0.00,,,0.00,,2013-06-14 03:34:00,
2013-06-13 21:43:00,64.0,29.0,30.30,SSW,195,13.0,16.0,27,0.00,,,0.00,,2013-06-14 03:43:00,
2013-06-13 21:52:00,63.0,32.0,30.32,West,276,17.0,24.0,31,0.00,,,0.00,,2013-06-14 03:52:00,
2013-06-13 22:01:00,60.0,40.0,30.32,NNW,344,8.0,12.0,47,0.00,,,0.00,,2013-06-14 04:01:00,
2013-06-13 22:12:00,60.0,36.0,30.31,NNW,332,0.0,7.0,40,0.00,,,0.00,,2013-06-14 04:12:00,
2013-06-13 22:22:00,60.0,34.0,30.30,North,9,6.0,9.0,38,0.00,,,0.00,,2013-06-14 04:22:00,
2013-06-13 22:33:00,60.0,37.0,30.30,North,4,7.0,14.0,42,0.00,,,0.00,,2013-06-14 04:33:00,
2013-06-13 22:43:00,59.0,37.0,30.30,West,271,5.0,6.0,43,0.00,,,0.00,,2013-06-14 04:43:00,
2013-06-13 22:53:00,59.0,36.0,30.30,NNE,29,5.0,6.0,42,0.00,,,0.00,,2013-06-14 04:53:00,
2013-06-13 23:02:00,58.0,36.0,30.31,NNE,31,0.0,0.0,43,0.00,,,0.00,,2013-06-14 05:02:00,
2013-06-13 23:11:00,58.0,36.0,30.32,NNW,340,3.0,3.0,44,0.00,,,0.00,,2013-06-14 05:11:00,
2013-06-13 23:22:00,58.0,36.0,30.32,NNW,340,3.0,3.0,44,0.00,,,0.00,,2013-06-14 05:22:00,
2013-06-13 23:34:00,57.0,37.0,30.32,NW,316,0.0,0.0,47,0.00,,,0.00,,2013-06-14 05:34:00,
2013-06-13 23:43:00,57.0,37.0,30.34,NNE,30,0.0,0.0,47,0.00,,,0.00,,2013-06-14 05:43:00,
2013-06-13 23:52:00,57.0,35.0,30.34,NW,315,0.0,0.0,44,0.00,,,0.00,,2013-06-14 05:52:00,